Time;durP1;ratioP1;P1;durP2;ratioP2;P2;SDS_P1;SDS_P2;PMS_P1;PMS_P2;Temp;Humidity;BMP_temperature;BMP_pressure;BME280_temperature;BME280_humidity;BME280_pressure;Samples;Min_cycle;Max_cycle;Signal;HPM_P1;HPM_P2
2023/05/15 00:02:17;;;;;;;36.25;23.38;;;;;;;13.90;100.00;101386.28;4965941;28;20085;-75
2023/05/15 00:04:43;;;;;;;32.55;22.48;;;;;;;13.82;100.00;101385.97;4969070;28;20049;-75
2023/05/15 00:07:10;;;;;;;34.65;23.48;;;;;;;13.77;100.00;101372.00;4969530;28;20572;-76
2023/05/15 00:09:38;;;;;;;32.17;22.10;;;;;;;13.81;100.00;101372.66;4974962;28;20039;-75
2023/05/15 00:12:05;;;;;;;42.30;25.10;;;;;;;13.65;100.00;101375.50;4979733;28;20041;-75
2023/05/15 00:14:36;;;;;;;39.85;22.88;;;;;;;13.69;100.00;101369.84;4969365;28;20087;-75
2023/05/15 00:17:08;;;;;;;35.58;23.45;;;;;;;13.72;100.00;101372.31;4968643;28;20129;-75
2023/05/15 00:19:37;;;;;;;37.70;21.75;;;;;;;13.61;100.00;101377.56;4961249;28;20050;-75
2023/05/15 00:22:03;;;;;;;35.03;21.55;;;;;;;13.61;100.00;101379.38;4971217;28;20129;-75
2023/05/15 00:24:29;;;;;;;38.42;24.35;;;;;;;13.37;100.00;101376.53;4961391;28;20031;-75
2023/05/15 00:26:54;;;;;;;38.45;23.50;;;;;;;13.36;100.00;101370.31;4966505;28;20047;-75
2023/05/15 00:29:20;;;;;;;38.75;22.50;;;;;;;13.42;100.00;101377.06;4982055;28;20042;-75
2023/05/15 00:31:48;;;;;;;36.35;22.80;;;;;;;13.31;100.00;101379.63;4964142;28;20037;-74
2023/05/15 00:34:14;;;;;;;34.85;21.50;;;;;;;13.37;100.00;101371.16;4961894;28;21266;-75
2023/05/15 00:36:43;;;;;;;35.45;21.75;;;;;;;13.37;100.00;101368.50;4968935;28;20054;-75
2023/05/15 00:39:10;;;;;;;43.00;23.83;;;;;;;13.41;100.00;101375.38;4983058;28;20031;-75
2023/05/15 00:41:36;;;;;;;31.63;21.77;;;;;;;13.29;100.00;101377.00;4984407;28;20555;-74
2023/05/15 00:44:05;;;;;;;36.95;21.55;;;;;;;13.34;100.00;101374.88;4973081;28;20111;-74
2023/05/15 00:46:34;;;;;;;31.88;21.00;;;;;;;13.27;100.00;101370.91;4969954;28;20039;-75
2023/05/15 00:49:12;;;;;;;37.55;23.63;;;;;;;13.15;100.00;101372.56;4973152;28;20081;-75
2023/05/15 00:51:41;;;;;;;38.35;21.98;;;;;;;13.19;100.00;101374.06;4960482;28;20038;-75
2023/05/15 00:54:08;;;;;;;35.03;21.00;;;;;;;13.21;100.00;101366.81;4969411;28;20027;-75
2023/05/15 00:56:38;;;;;;;40.05;22.15;;;;;;;13.25;100.00;101361.25;4966342;28;20521;-75
2023/05/15 00:59:10;;;;;;;44.45;23.15;;;;;;;13.22;100.00;101365.00;4983106;28;20159;-75
2023/05/15 01:01:36;;;;;;;35.55;21.73;;;;;;;13.11;100.00;101360.31;4965656;28;20034;-76
2023/05/15 01:04:05;;;;;;;35.72;23.52;;;;;;;13.09;100.00;101359.53;4969254;28;20712;-75
2023/05/15 01:06:31;;;;;;;35.60;22.65;;;;;;;13.01;100.00;101364.56;4974986;28;20047;-75
2023/05/15 01:09:03;;;;;;;31.17;21.40;;;;;;;12.99;100.00;101355.75;4968049;28;20034;-75
2023/05/15 01:11:38;;;;;;;34.78;22.92;;;;;;;12.94;100.00;101353.38;4968765;28;20069;-75
2023/05/15 01:14:06;;;;;;;35.33;21.98;;;;;;;12.96;100.00;101340.78;4980224;28;20134;-75
2023/05/15 01:16:35;;;;;;;29.45;21.10;;;;;;;12.97;100.00;101341.63;4961353;28;20066;-75
2023/05/15 01:19:02;;;;;;;35.00;21.98;;;;;;;12.91;100.00;101339.34;4967396;28;20374;-75
2023/05/15 01:21:37;;;;;;;34.30;22.15;;;;;;;12.94;100.00;101342.66;4963398;28;20050;-75
2023/05/15 01:24:47;;;;;;;32.63;20.60;;;;;;;12.94;100.00;101339.13;4964782;28;20038;-75
2023/05/15 01:27:29;;;;;;;32.08;21.00;;;;;;;12.89;100.00;101342.09;4961167;28;20046;-75
2023/05/15 01:30:26;;;;;;;33.70;21.90;;;;;;;12.85;100.00;101342.41;4967301;28;20042;-75
2023/05/15 01:33:18;;;;;;;30.75;19.65;;;;;;;12.79;100.00;101335.63;4968886;28;20042;-75
2023/05/15 01:35:58;;;;;;;26.45;16.67;;;;;;;12.70;100.00;101333.53;4949739;28;20141;-75
2023/05/15 01:38:38;;;;;;;27.02;17.08;;;;;;;12.54;100.00;101333.69;4969224;28;20585;-75
2023/05/15 01:41:21;;;;;;;31.15;21.30;;;;;;;12.40;100.00;101355.97;4969827;28;20504;-75
2023/05/15 01:43:51;;;;;;;44.22;25.52;;;;;;;12.30;100.00;101367.31;4975718;28;20043;-75
2023/05/15 01:46:20;;;;;;;38.47;24.90;;;;;;;12.38;100.00;101348.97;4965464;28;20043;-75
2023/05/15 01:48:49;;;;;;;38.13;23.10;;;;;;;12.53;100.00;101340.00;4965944;28;20501;-75
2023/05/15 01:51:19;;;;;;;40.03;25.20;;;;;;;12.26;100.00;101366.66;4976202;28;20035;-75
2023/05/15 01:53:45;;;;;;;36.35;25.27;;;;;;;12.20;100.00;101359.03;4982005;28;20098;-75
2023/05/15 01:56:13;;;;;;;37.17;23.25;;;;;;;12.29;100.00;101334.38;4976940;28;20117;-75
2023/05/15 01:58:43;;;;;;;37.15;24.05;;;;;;;12.47;100.00;101328.81;4981924;28;20035;-77
2023/05/15 02:01:12;;;;;;;41.35;22.50;;;;;;;12.35;100.00;101359.84;4965327;28;20166;-76
2023/05/15 02:03:39;;;;;;;36.63;23.40;;;;;;;12.27;100.00;101348.81;4965195;28;20750;-77
2023/05/15 02:06:11;;;;;;;36.78;23.63;;;;;;;12.13;100.00;101331.78;4969911;28;20049;-76
2023/05/15 02:08:38;;;;;;;40.25;23.23;;;;;;;12.07;100.00;101332.19;4972222;28;20094;-76
2023/05/15 02:11:05;;;;;;;33.63;21.33;;;;;;;12.20;100.00;101351.00;4984262;28;20038;-76
2023/05/15 02:13:35;;;;;;;39.53;23.08;;;;;;;11.84;100.00;101340.72;4972267;28;20223;-76
2023/05/15 02:16:00;;;;;;;42.28;24.05;;;;;;;11.91;100.00;101352.78;4975095;28;20074;-76
2023/05/15 02:18:27;;;;;;;34.53;21.25;;;;;;;11.85;100.00;101350.50;4969197;28;20035;-76
2023/05/15 02:20:53;;;;;;;29.95;19.52;;;;;;;11.86;100.00;101342.38;4983265;28;20043;-75
2023/05/15 02:23:22;;;;;;;31.98;20.77;;;;;;;11.96;100.00;101331.13;4973189;28;20061;-76
2023/05/15 02:26:20;;;;;;;37.30;21.80;;;;;;;12.02;100.00;101339.63;4980466;28;20070;-75
2023/05/15 02:28:51;;;;;;;33.15;19.83;;;;;;;11.91;100.00;101328.72;4972432;28;20074;-76
2023/05/15 02:31:51;;;;;;;34.03;22.40;;;;;;;12.03;100.00;101330.66;4971917;28;20046;-76
2023/05/15 02:34:44;;;;;;;30.02;19.27;;;;;;;11.62;100.00;101341.16;4960834;28;20043;-75
2023/05/15 02:37:17;;;;;;;34.25;21.13;;;;;;;11.72;100.00;101341.47;4976553;28;20030;-75
2023/05/15 02:39:44;;;;;;;36.90;21.60;;;;;;;11.84;100.00;101341.59;4983243;28;20042;-75
2023/05/15 02:42:13;;;;;;;37.72;23.15;;;;;;;11.80;100.00;101342.72;4973602;28;20035;-75
2023/05/15 02:44:43;;;;;;;32.13;20.15;;;;;;;11.78;100.00;101333.91;4969785;28;20125;-75
2023/05/15 02:47:12;;;;;;;36.65;21.05;;;;;;;11.81;100.00;101340.91;4956275;28;20185;-76
2023/05/15 02:49:39;;;;;;;27.65;18.95;;;;;;;11.64;100.00;101332.06;4967116;28;20040;-75
2023/05/15 02:52:12;;;;;;;30.45;20.20;;;;;;;11.66;100.00;101329.34;4962942;28;20036;-76
2023/05/15 02:54:37;;;;;;;31.23;19.40;;;;;;;11.73;100.00;101329.81;4964478;28;20047;-75
2023/05/15 02:57:09;;;;;;;32.17;20.17;;;;;;;11.66;100.00;101334.69;4966289;28;20042;-76
2023/05/15 02:59:36;;;;;;;38.00;25.30;;;;;;;11.41;100.00;101330.78;4973920;28;20028;-75
2023/05/15 03:02:09;;;;;;;39.67;23.90;;;;;;;11.43;100.00;101329.81;4982555;28;20035;-75
2023/05/15 03:04:35;;;;;;;38.03;24.17;;;;;;;11.45;100.00;101328.81;4956489;28;20164;-75
2023/05/15 03:07:00;;;;;;;35.65;21.88;;;;;;;11.59;100.00;101330.63;4985888;28;20043;-75
2023/05/15 03:09:26;;;;;;;30.48;20.83;;;;;;;11.46;100.00;101319.84;4965619;28;20042;-75
2023/05/15 03:11:52;;;;;;;29.17;19.30;;;;;;;11.30;100.00;101317.22;4978796;28;20039;-75
2023/05/15 03:14:18;;;;;;;37.72;22.52;;;;;;;11.32;100.00;101314.44;4974248;28;20057;-75
2023/05/15 03:16:43;;;;;;;33.00;20.42;;;;;;;11.23;100.00;101320.31;4966931;28;20034;-75
2023/05/15 03:19:12;;;;;;;30.35;21.38;;;;;;;11.16;100.00;101317.16;4969347;28;20031;-75
2023/05/15 03:21:38;;;;;;;36.42;22.10;;;;;;;11.18;100.00;101322.41;4979629;28;20065;-75
2023/05/15 03:24:10;;;;;;;31.42;20.45;;;;;;;11.30;100.00;101322.56;4958517;28;20034;-75
2023/05/15 03:26:36;;;;;;;41.20;25.02;;;;;;;11.24;100.00;101325.56;4967163;28;20064;-76
2023/05/15 03:29:02;;;;;;;38.38;24.27;;;;;;;11.37;100.00;101320.38;4971270;28;20042;-75
2023/05/15 03:31:28;;;;;;;39.47;22.75;;;;;;;11.40;100.00;101323.72;4970644;28;20039;-75
2023/05/15 03:33:54;;;;;;;34.10;21.92;;;;;;;11.15;100.00;101324.31;4985961;28;20035;-75
2023/05/15 03:36:21;;;;;;;43.28;25.02;;;;;;;11.14;100.00;101337.72;4969384;28;20070;-75
2023/05/15 03:38:47;;;;;;;43.70;24.30;;;;;;;11.18;100.00;101347.28;4965793;28;20563;-75
2023/05/15 03:41:12;;;;;;;36.03;22.90;;;;;;;11.28;100.00;101343.13;4970256;28;20042;-76
2023/05/15 03:43:38;;;;;;;36.22;22.20;;;;;;;11.07;100.00;101331.03;4969574;28;20042;-74
2023/05/15 03:46:05;;;;;;;40.20;23.10;;;;;;;11.28;100.00;101329.78;4982887;28;20121;-75
2023/05/15 03:48:35;;;;;;;33.28;20.65;;;;;;;11.13;100.00;101326.19;4940195;28;20548;-75
2023/05/15 03:51:06;;;;;;;35.75;21.92;;;;;;;11.15;100.00;101334.13;4985562;28;20996;-75
2023/05/15 03:53:31;;;;;;;33.63;20.80;;;;;;;11.09;100.00;101329.13;4965141;28;20039;-75
2023/05/15 03:55:57;;;;;;;30.92;21.05;;;;;;;11.22;100.00;101331.94;4968871;28;20683;-75
2023/05/15 03:58:22;;;;;;;32.35;22.08;;;;;;;11.26;100.00;101333.50;4961821;28;20043;-75
2023/05/15 04:00:50;;;;;;;34.03;21.35;;;;;;;11.38;100.00;101338.97;4982067;28;20054;-75
2023/05/15 04:03:16;;;;;;;34.30;20.90;;;;;;;11.56;100.00;101328.16;4967903;28;20035;-75
2023/05/15 04:05:41;;;;;;;29.17;18.98;;;;;;;11.67;100.00;101331.03;4956942;28;20787;-75
2023/05/15 04:08:08;;;;;;;28.63;20.45;;;;;;;11.80;100.00;101321.34;4967231;28;20057;-75
2023/05/15 04:10:35;;;;;;;39.22;20.92;;;;;;;11.97;100.00;101314.13;4982209;28;20038;-75
2023/05/15 04:13:00;;;;;;;32.95;21.42;;;;;;;12.20;100.00;101324.28;4968353;28;20026;-75
2023/05/15 04:15:27;;;;;;;32.55;20.50;;;;;;;12.43;100.00;101321.00;4968039;28;20484;-76
2023/05/15 04:17:53;;;;;;;29.02;20.60;;;;;;;12.85;100.00;101323.66;4968985;28;20039;-75
2023/05/15 04:20:20;;;;;;;32.95;20.58;;;;;;;13.16;100.00;101318.03;4968205;28;20130;-74
2023/05/15 04:22:46;;;;;;;34.80;21.85;;;;;;;13.63;100.00;101318.50;4971450;28;20398;-76
2023/05/15 04:25:13;;;;;;;27.45;18.60;;;;;;;13.55;100.00;101320.81;4979125;28;20035;-75
2023/05/15 04:27:39;;;;;;;31.88;22.02;;;;;;;13.84;100.00;101316.16;4968986;28;20042;-75
2023/05/15 04:30:06;;;;;;;34.58;22.83;;;;;;;13.48;100.00;101315.03;4969533;28;20134;-75
2023/05/15 04:32:36;;;;;;;36.78;22.67;;;;;;;13.36;100.00;101318.56;4966508;28;20054;-75
2023/05/15 04:35:10;;;;;;;33.03;21.85;;;;;;;13.16;100.00;101319.84;4981690;28;20090;-75
2023/05/15 04:37:37;;;;;;;36.58;23.95;;;;;;;13.03;100.00;101329.66;4963181;28;20114;-75
2023/05/15 04:40:09;;;;;;;43.50;26.15;;;;;;;12.95;100.00;101325.66;4977130;28;20043;-75
2023/05/15 04:42:42;;;;;;;40.72;25.25;;;;;;;13.02;100.00;101323.44;4964497;28;20047;-75
2023/05/15 04:45:08;;;;;;;43.83;26.63;;;;;;;13.12;100.00;101329.06;4964733;28;20043;-75
2023/05/15 04:47:42;;;;;;;50.50;28.92;;;;;;;13.11;100.00;101325.50;4962903;28;20058;-75
2023/05/15 04:50:12;;;;;;;45.13;27.35;;;;;;;13.23;100.00;101325.69;4965531;28;20086;-75
2023/05/15 04:52:37;;;;;;;40.95;26.50;;;;;;;13.43;100.00;101319.84;4969662;28;20042;-75
2023/05/15 04:55:03;;;;;;;42.95;27.52;;;;;;;13.53;100.00;101317.41;4972318;28;20054;-75
2023/05/15 04:57:33;;;;;;;41.63;25.60;;;;;;;14.22;100.00;101310.78;4981069;28;20916;-76
2023/05/15 05:00:01;;;;;;;41.70;25.77;;;;;;;15.17;100.00;101306.53;4969048;28;20138;-76
2023/05/15 05:02:26;;;;;;;45.80;28.98;;;;;;;16.13;100.00;101304.47;4958816;28;20547;-76
2023/05/15 05:04:52;;;;;;;41.78;27.30;;;;;;;16.64;100.00;101301.25;4967524;28;20643;-76
2023/05/15 05:07:18;;;;;;;37.47;25.98;;;;;;;16.29;100.00;101312.19;4978712;28;20039;-76
2023/05/15 05:09:44;;;;;;;41.90;26.48;;;;;;;15.66;100.00;101321.63;4950711;28;20476;-76
2023/05/15 05:12:10;;;;;;;43.55;27.70;;;;;;;15.01;100.00;101331.00;4971284;28;20058;-75
2023/05/15 05:14:36;;;;;;;42.15;27.15;;;;;;;14.84;100.00;101332.22;4964570;28;20047;-72
2023/05/15 05:17:03;;;;;;;43.22;27.67;;;;;;;14.57;100.00;101342.31;4966247;28;20130;-74
2023/05/15 05:19:28;;;;;;;49.70;27.85;;;;;;;14.39;100.00;101336.41;4960623;28;20043;-75
2023/05/15 05:21:54;;;;;;;51.97;27.38;;;;;;;14.19;100.00;101349.41;4957160;28;20039;-74
2023/05/15 05:24:20;;;;;;;40.60;26.95;;;;;;;13.98;100.00;101353.59;4956826;28;20169;-74
2023/05/15 05:26:45;;;;;;;46.45;29.38;;;;;;;13.95;100.00;101361.84;4959394;28;20035;-74
2023/05/15 05:29:14;;;;;;;45.17;28.00;;;;;;;13.89;100.00;101357.75;4963362;28;20037;-76
2023/05/15 05:31:40;;;;;;;45.67;28.38;;;;;;;13.80;100.00;101355.69;4961598;28;20066;-75
2023/05/15 05:34:05;;;;;;;50.28;28.52;;;;;;;13.70;100.00;101362.66;4982003;28;21040;-74
2023/05/15 05:36:31;;;;;;;49.08;29.17;;;;;;;13.70;100.00;101366.22;4949220;28;20592;-74
2023/05/15 05:38:57;;;;;;;55.13;29.45;;;;;;;13.88;100.00;101364.09;4982448;28;20881;-76
2023/05/15 05:41:22;;;;;;;50.72;29.08;;;;;;;13.98;100.00;101375.03;4981930;28;20114;-75
2023/05/15 05:43:48;;;;;;;46.47;28.40;;;;;;;13.82;100.00;101383.28;4977851;28;29603;-74
2023/05/15 05:46:13;;;;;;;48.30;28.55;;;;;;;13.99;100.00;101374.91;4969407;28;20034;-73
2023/05/15 05:48:39;;;;;;;50.28;29.92;;;;;;;13.82;100.00;101380.59;4960681;28;20102;-74
2023/05/15 05:51:05;;;;;;;48.08;29.35;;;;;;;13.83;100.00;101382.31;4978062;28;20066;-77
2023/05/15 05:53:31;;;;;;;45.20;24.52;;;;;;;13.43;100.00;101382.31;4966254;28;20139;-76
2023/05/15 05:55:57;;;;;;;44.00;25.23;;;;;;;13.34;100.00;101382.94;4974505;28;20057;-74
2023/05/15 05:58:23;;;;;;;40.17;23.58;;;;;;;13.12;100.00;101378.09;4964474;28;20035;-75
2023/05/15 06:00:48;;;;;;;42.70;25.08;;;;;;;13.26;100.00;101387.09;4963492;28;20035;-74
2023/05/15 06:03:14;;;;;;;40.25;24.23;;;;;;;13.21;100.00;101380.22;4966723;28;20050;-74
2023/05/15 06:05:40;;;;;;;47.92;25.77;;;;;;;13.34;100.00;101380.25;4960344;28;20047;-76
2023/05/15 06:08:06;;;;;;;46.53;26.58;;;;;;;13.49;100.00;101378.38;4967478;28;20067;-77
2023/05/15 06:10:32;;;;;;;42.03;25.05;;;;;;;13.62;100.00;101387.31;4979844;28;20994;-76
2023/05/15 06:12:59;;;;;;;40.53;24.98;;;;;;;13.68;100.00;101373.50;4953871;28;20035;-77
2023/05/15 06:15:25;;;;;;;41.75;23.27;;;;;;;13.58;100.00;101372.41;4986967;28;20043;-76
2023/05/15 06:17:50;;;;;;;40.78;23.38;;;;;;;14.19;100.00;101370.84;4968858;28;20624;-76
2023/05/15 06:20:16;;;;;;;33.85;22.75;;;;;;;15.32;100.00;101369.88;4983856;28;20027;-74
2023/05/15 06:22:42;;;;;;;38.20;23.10;;;;;;;15.28;100.00;101371.06;4961446;28;20118;-76
2023/05/15 06:25:12;;;;;;;35.55;22.13;;;;;;;16.33;100.00;101364.78;4967550;28;20043;-75
2023/05/15 06:27:39;;;;;;;33.17;21.80;;;;;;;16.92;100.00;101355.59;4978462;28;20190;-72
2023/05/15 06:30:06;;;;;;;28.42;19.33;;;;;;;16.71;100.00;101359.06;4984220;28;21123;-77
2023/05/15 06:32:33;;;;;;;28.25;20.98;;;;;;;16.65;100.00;101354.13;4973499;28;20035;-75
2023/05/15 06:34:59;;;;;;;31.48;21.60;;;;;;;16.99;100.00;101351.44;4972162;28;21009;-75
2023/05/15 06:37:25;;;;;;;28.00;20.45;;;;;;;17.26;98.12;101348.28;4976646;28;20484;-75
2023/05/15 06:39:50;;;;;;;26.40;19.20;;;;;;;16.91;97.44;101346.66;4978949;28;20954;-75
2023/05/15 06:42:16;;;;;;;30.13;19.85;;;;;;;17.35;94.67;101342.97;4991309;28;20100;-75
2023/05/15 06:44:41;;;;;;;27.85;19.27;;;;;;;17.02;92.57;101345.78;4977541;28;20063;-74
2023/05/15 06:47:07;;;;;;;32.03;20.30;;;;;;;17.26;94.10;101350.97;4972842;28;20148;-75
2023/05/15 06:49:33;;;;;;;27.85;19.90;;;;;;;16.95;96.22;101355.34;4968449;28;20299;-74
2023/05/15 06:51:59;;;;;;;27.02;19.02;;;;;;;17.20;94.49;101351.47;4980545;28;20362;-74
2023/05/15 06:54:25;;;;;;;30.73;20.00;;;;;;;17.72;92.53;101347.97;4975234;28;20063;-75
2023/05/15 06:56:50;;;;;;;26.88;19.48;;;;;;;17.17;92.10;101341.84;4988737;28;20066;-75
2023/05/15 06:59:16;;;;;;;25.73;18.58;;;;;;;17.40;90.95;101344.44;4977474;28;20063;-74
2023/05/15 07:01:41;;;;;;;28.83;19.73;;;;;;;17.61;94.84;101343.44;4978651;28;20066;-75
2023/05/15 07:04:07;;;;;;;27.33;19.42;;;;;;;18.13;96.75;101346.25;4982826;28;20800;-74
2023/05/15 07:06:33;;;;;;;25.63;18.83;;;;;;;17.14;89.76;101350.16;4963470;28;20038;-75
2023/05/15 07:08:59;;;;;;;24.30;18.38;;;;;;;17.31;96.51;101348.75;4981189;28;20053;-73
2023/05/15 07:11:25;;;;;;;27.75;18.88;;;;;;;18.04;97.53;101341.66;4969408;28;20038;-74
2023/05/15 07:13:53;;;;;;;25.40;18.65;;;;;;;18.63;89.96;101340.94;4968160;28;20263;-75
2023/05/15 07:16:19;;;;;;;24.58;18.65;;;;;;;19.07;85.06;101344.19;4958435;28;20132;-74
2023/05/15 07:18:45;;;;;;;24.85;18.23;;;;;;;19.06;85.74;101343.31;4983270;28;20040;-76
2023/05/15 07:21:10;;;;;;;27.05;17.63;;;;;;;18.54;86.78;101341.75;4973703;28;20175;-76
2023/05/15 07:23:36;;;;;;;21.75;16.45;;;;;;;17.65;90.82;101343.19;4960710;28;20031;-75
2023/05/15 07:26:01;;;;;;;23.40;17.42;;;;;;;18.64;86.66;101332.69;4965671;28;20034;-76
2023/05/15 07:28:27;;;;;;;24.67;18.05;;;;;;;19.04;83.32;101334.50;4964290;28;20062;-76
2023/05/15 07:30:53;;;;;;;26.25;19.13;;;;;;;19.37;81.23;101341.34;4971722;28;20045;-76
2023/05/15 07:33:19;;;;;;;28.27;18.35;;;;;;;19.54;77.13;101339.81;4971213;28;20046;-76
2023/05/15 07:35:44;;;;;;;23.45;16.75;;;;;;;19.76;77.94;101335.97;4963845;28;20051;-76
2023/05/15 07:38:10;;;;;;;29.52;19.23;;;;;;;20.10;76.78;101336.31;4965821;28;20070;-75
2023/05/15 07:40:35;;;;;;;27.17;19.55;;;;;;;20.16;77.84;101326.75;4970338;28;20031;-76
2023/05/15 07:43:01;;;;;;;26.45;19.13;;;;;;;19.77;76.11;101336.81;4966665;28;20568;-75
2023/05/15 07:45:27;;;;;;;25.83;19.00;;;;;;;20.10;74.83;101330.06;4967251;28;20082;-74
2023/05/15 07:47:53;;;;;;;27.02;18.60;;;;;;;19.96;79.83;101322.41;4963401;28;20406;-74
2023/05/15 07:50:19;;;;;;;29.85;18.60;;;;;;;20.10;76.44;101325.50;4963473;28;20035;-76
2023/05/15 07:52:44;;;;;;;24.17;17.95;;;;;;;20.13;73.69;101321.63;4959862;28;20036;-76
2023/05/15 07:55:11;;;;;;;22.50;16.65;;;;;;;20.23;73.62;101327.88;4969644;28;20042;-76
2023/05/15 07:57:36;;;;;;;24.80;18.38;;;;;;;19.80;71.54;101323.84;4965471;28;20031;-76
2023/05/15 08:00:08;;;;;;;28.65;18.17;;;;;;;20.34;75.73;101313.31;4965281;28;20030;-76
2023/05/15 08:02:37;;;;;;;25.33;18.63;;;;;;;20.05;74.58;101332.34;4984257;28;20039;-76
2023/05/15 08:05:04;;;;;;;25.40;16.92;;;;;;;20.52;72.06;101327.78;4980516;28;20981;-76
2023/05/15 08:07:32;;;;;;;26.70;17.48;;;;;;;19.83;73.36;101330.81;4970205;28;20042;-76
2023/05/15 08:09:59;;;;;;;25.20;17.73;;;;;;;20.76;70.86;101327.22;4968502;28;20251;-75
2023/05/15 08:12:25;;;;;;;21.70;16.08;;;;;;;20.67;67.33;101323.56;4963754;28;20844;-74
2023/05/15 08:14:53;;;;;;;21.30;15.35;;;;;;;20.40;69.08;101321.66;4984026;28;21001;-75
2023/05/15 08:17:19;;;;;;;24.15;17.15;;;;;;;20.27;67.84;101323.00;4968506;28;20050;-73
2023/05/15 08:19:46;;;;;;;23.50;17.00;;;;;;;20.40;69.76;101321.66;4982389;28;20074;-75
2023/05/15 08:22:11;;;;;;;19.45;15.80;;;;;;;20.39;69.43;101324.53;4963687;28;20506;-75
2023/05/15 08:24:38;;;;;;;20.75;16.70;;;;;;;20.47;69.92;101326.53;4964034;28;20039;-75
2023/05/15 08:27:05;;;;;;;24.85;17.65;;;;;;;20.25;68.87;101311.47;4965577;28;20574;-74
2023/05/15 08:29:31;;;;;;;23.73;18.08;;;;;;;20.62;68.71;101311.47;4978048;28;20038;-74
2023/05/15 08:31:57;;;;;;;23.17;18.00;;;;;;;20.76;68.10;101305.53;4968515;28;20031;-75
2023/05/15 08:34:23;;;;;;;28.20;19.27;;;;;;;20.65;68.24;101308.47;4980389;28;20034;-74
2023/05/15 08:36:48;;;;;;;25.38;19.13;;;;;;;20.32;68.06;101318.00;4978564;28;20100;-75
2023/05/15 08:39:14;;;;;;;29.02;19.17;;;;;;;20.30;70.86;101318.16;4955899;28;20047;-75
2023/05/15 08:41:45;;;;;;;29.95;18.63;;;;;;;19.84;68.00;101316.31;4967684;28;20053;-73
2023/05/15 08:44:11;;;;;;;24.77;18.07;;;;;;;19.94;68.20;101319.84;4966090;28;20035;-76
2023/05/15 08:46:38;;;;;;;25.25;17.90;;;;;;;19.94;67.11;101311.72;4981748;28;20897;-74
2023/05/15 08:49:13;;;;;;;25.77;17.52;;;;;;;19.83;67.20;101309.16;4968105;28;20591;-74
2023/05/15 08:51:41;;;;;;;21.33;16.17;;;;;;;20.14;66.75;101305.25;4954148;28;20035;-75
2023/05/15 08:54:08;;;;;;;21.85;17.92;;;;;;;20.21;67.94;101299.22;4966888;28;20065;-75
2023/05/15 08:56:33;;;;;;;20.13;14.85;;;;;;;20.21;66.99;101308.19;4960046;28;20929;-74
2023/05/15 08:59:01;;;;;;;22.55;15.48;;;;;;;20.52;65.77;101300.69;4961058;28;20035;-74
2023/05/15 09:01:27;;;;;;;23.67;16.02;;;;;;;20.72;65.58;101297.88;4958411;28;20046;-75
2023/05/15 09:03:52;;;;;;;23.88;13.98;;;;;;;20.87;65.58;101294.47;4967803;28;20105;-75
2023/05/15 09:06:19;;;;;;;19.45;14.45;;;;;;;20.54;62.40;101298.69;4962229;28;20047;-74
2023/05/15 09:08:45;;;;;;;20.58;15.18;;;;;;;20.85;63.69;101293.78;4967037;28;20572;-75
2023/05/15 09:11:12;;;;;;;19.55;14.68;;;;;;;21.03;63.84;101292.94;4965512;28;20039;-75
2023/05/15 09:13:38;;;;;;;22.23;15.60;;;;;;;20.42;63.86;101297.97;4958752;28;20047;-75
2023/05/15 09:16:06;;;;;;;22.02;13.85;;;;;;;20.57;62.18;101292.09;4973478;28;20043;-75
2023/05/15 09:18:31;;;;;;;22.02;15.52;;;;;;;20.43;62.67;101288.88;4981297;28;20042;-74
2023/05/15 09:21:32;;;;;;;20.52;16.85;;;;;;;20.47;65.19;101291.28;4969595;28;20034;-74
2023/05/15 09:24:19;;;;;;;23.55;16.05;;;;;;;20.52;64.64;101297.13;4962950;28;20052;-75
2023/05/15 09:26:59;;;;;;;22.40;16.55;;;;;;;20.62;64.31;101293.34;4965833;28;20035;-74
2023/05/15 09:29:27;;;;;;;21.25;16.73;;;;;;;20.76;61.14;101297.41;4958488;28;20038;-73
2023/05/15 09:31:53;;;;;;;18.70;15.73;;;;;;;20.73;62.07;101303.13;4964312;28;20034;-74
2023/05/15 09:34:27;;;;;;;25.40;18.00;;;;;;;20.64;60.81;101296.78;4962704;28;20046;-75
2023/05/15 09:36:52;;;;;;;21.52;17.65;;;;;;;20.95;65.10;101291.84;4963879;28;20832;-74
2023/05/15 09:39:21;;;;;;;22.40;17.42;;;;;;;20.79;63.21;101294.41;4959723;28;20039;-75
2023/05/15 09:41:47;;;;;;;23.08;18.30;;;;;;;21.00;62.87;101294.13;4982679;28;20118;-75
2023/05/15 09:44:26;;;;;;;23.63;17.60;;;;;;;20.60;62.82;101287.22;4977419;28;20035;-74
2023/05/15 09:46:52;;;;;;;24.65;17.08;;;;;;;21.05;62.77;101288.22;4979260;28;20038;-74
2023/05/15 09:49:20;;;;;;;24.20;17.52;;;;;;;21.21;63.85;101291.94;4966732;28;20035;-75
2023/05/15 09:51:47;;;;;;;26.05;18.20;;;;;;;21.46;60.75;101290.31;4968475;28;20062;-74
2023/05/15 09:54:17;;;;;;;26.35;18.05;;;;;;;21.64;62.56;101293.03;4969999;28;20035;-74
2023/05/15 09:56:44;;;;;;;21.92;17.15;;;;;;;21.76;59.77;101292.75;4972619;28;20046;-74
2023/05/15 09:59:22;;;;;;;23.95;17.83;;;;;;;21.95;62.61;101285.25;4982547;28;20220;-75
2023/05/15 10:01:51;;;;;;;23.00;16.55;;;;;;;22.06;58.78;101281.41;4965280;28;20043;-75
2023/05/15 10:04:18;;;;;;;24.05;17.65;;;;;;;22.60;57.53;101270.31;4980542;28;20037;-74
2023/05/15 10:06:47;;;;;;;29.58;18.73;;;;;;;22.30;57.66;101271.72;4966574;28;20040;-75
2023/05/15 10:09:14;;;;;;;27.52;17.70;;;;;;;21.82;59.04;101276.66;4985822;28;20035;-76
2023/05/15 10:11:46;;;;;;;26.05;18.63;;;;;;;21.57;62.43;101275.66;4971461;28;20714;-75
2023/05/15 10:14:12;;;;;;;;;;;;;;;21.80;62.75;101277.84;4969423;28;20047;-74
2023/05/15 10:16:39;;;;;;;28.05;20.00;;;;;;;21.59;62.49;101275.50;4986933;28;19944;-74
2023/05/15 10:19:06;;;;;;;28.83;20.13;;;;;;;21.79;61.90;101281.56;4969655;28;20027;-75
2023/05/15 10:21:35;;;;;;;26.60;19.33;;;;;;;22.19;61.15;101275.56;4962448;28;20039;-75
2023/05/15 10:24:02;;;;;;;23.15;17.20;;;;;;;22.32;62.53;101277.81;4969446;28;20035;-74
2023/05/15 10:26:39;;;;;;;27.08;18.48;;;;;;;22.73;59.84;101278.81;4966224;28;20035;-74
2023/05/15 10:29:13;;;;;;;23.95;18.25;;;;;;;22.69;61.54;101272.88;4980527;28;20033;-74
2023/05/15 10:31:40;;;;;;;21.80;17.45;;;;;;;22.72;59.38;101266.25;4963612;28;20036;-75
2023/05/15 10:34:07;;;;;;;21.73;17.23;;;;;;;22.81;58.78;101264.41;4962471;28;20131;-74
2023/05/15 10:36:34;;;;;;;23.80;19.27;;;;;;;22.57;58.69;101265.19;4961276;28;20067;-74
2023/05/15 10:39:02;;;;;;;24.92;19.58;;;;;;;22.95;58.64;101272.78;4963453;28;20035;-74
2023/05/15 10:41:31;;;;;;;32.95;23.52;;;;;;;22.18;60.75;101277.41;4964523;28;20046;-74
2023/05/15 10:43:58;;;;;;;33.85;25.67;;;;;;;21.77;61.56;101273.59;4969257;28;20146;-74
2023/05/15 10:46:25;;;;;;;36.17;26.38;;;;;;;21.61;62.48;101276.19;4961627;28;20515;-74
2023/05/15 10:48:51;;;;;;;39.47;24.95;;;;;;;21.46;62.66;101275.91;4974605;28;20047;-74
2023/05/15 10:51:23;;;;;;;35.05;25.17;;;;;;;21.26;62.77;101274.34;4956331;28;20031;-75
2023/05/15 10:53:50;;;;;;;34.08;23.27;;;;;;;21.79;62.05;101273.41;4959568;28;20105;-74
2023/05/15 10:56:16;;;;;;;29.17;22.00;;;;;;;21.43;60.94;101270.78;4979871;28;20118;-75
2023/05/15 10:58:49;;;;;;;22.52;18.33;;;;;;;21.96;59.85;101267.09;4964419;28;20089;-74
2023/05/15 11:01:31;;;;;;;25.23;18.30;;;;;;;21.84;59.08;101262.94;4969111;28;20844;-73
2023/05/15 11:04:15;;;;;;;19.63;17.30;;;;;;;22.09;59.78;101266.63;4958986;28;20096;-73
2023/05/15 11:06:48;;;;;;;18.88;15.95;;;;;;;22.18;56.55;101268.41;4967240;28;20114;-75
2023/05/15 11:09:20;;;;;;;20.75;16.02;;;;;;;22.42;55.31;101256.81;4978613;28;20040;-73
2023/05/15 11:11:56;;;;;;;21.58;17.17;;;;;;;21.72;55.06;101263.19;4982906;28;20093;-74